Time;durP1;ratioP1;P1;durP2;ratioP2;P2;SDS_P1;SDS_P2;PMS_P1;PMS_P2;Temp;Humidity;BMP_temperature;BMP_pressure;BME280_temperature;BME280_humidity;BME280_pressure;Samples;Min_cycle;Max_cycle;Signal;HPM_P1;HPM_P2
2023/09/13 00:01:16;;;;;;;10.77;8.55;;;20.20;99.90;;;;;;4952080;28;20042;-79
2023/09/13 00:03:42;;;;;;;15.00;11.85;;;20.30;99.90;;;;;;5003991;28;20027;-80
2023/09/13 00:06:08;;;;;;;20.63;14.00;;;20.40;99.90;;;;;;4967603;28;20061;-80
2023/09/13 00:08:33;;;;;;;17.17;14.02;;;20.40;99.90;;;;;;4974979;28;20457;-80
2023/09/13 00:11:05;;;;;;;13.68;10.70;;;20.40;99.90;;;;;;4972672;28;20556;-78
2023/09/13 00:13:31;;;;;;;26.15;22.13;;;20.40;99.90;;;;;;4952131;28;20045;-78
2023/09/13 00:15:57;;;;;;;28.30;21.77;;;20.30;99.90;;;;;;4974533;28;20654;-80
2023/09/13 00:18:22;;;;;;;20.00;15.45;;;20.30;99.90;;;;;;4957942;28;20027;-79
2023/09/13 00:20:51;;;;;;;15.48;13.10;;;20.30;99.90;;;;;;4974178;28;20110;-78
2023/09/13 00:23:17;;;;;;;20.20;16.60;;;20.40;99.90;;;;;;4972764;28;20100;-79
2023/09/13 00:25:42;;;;;;;36.20;27.02;;;20.40;99.90;;;;;;4975678;28;20499;-79
2023/09/13 00:28:08;;;;;;;36.92;27.83;;;20.40;99.90;;;;;;4973468;28;20506;-79
2023/09/13 00:30:33;;;;;;;31.58;23.95;;;20.40;99.90;;;;;;4956735;28;20521;-78
2023/09/13 00:32:59;;;;;;;22.92;16.73;;;20.50;99.90;;;;;;4976364;28;20122;-78
2023/09/13 00:35:24;;;;;;;19.08;16.23;;;20.40;99.90;;;;;;4957218;28;20043;-78
2023/09/13 00:37:50;;;;;;;20.77;15.48;;;20.30;99.90;;;;;;4991181;28;20050;-79
2023/09/13 00:40:16;;;;;;;22.17;18.48;;;20.50;99.90;;;;;;4974198;28;20035;-77
2023/09/13 00:42:42;;;;;;;22.80;17.75;;;20.60;99.90;;;;;;4973321;28;20106;-78
2023/09/13 00:45:08;;;;;;;26.60;21.05;;;20.60;99.90;;;;;;4971480;28;20126;-78
2023/09/13 00:47:33;;;;;;;23.00;18.05;;;20.70;99.90;;;;;;4974518;28;20034;-78
2023/09/13 00:49:59;;;;;;;29.90;22.05;;;20.50;99.90;;;;;;4974101;28;20030;-79
2023/09/13 00:52:24;;;;;;;21.08;18.45;;;20.50;99.90;;;;;;4987365;28;20030;-77
2023/09/13 00:54:50;;;;;;;36.08;25.63;;;20.40;99.90;;;;;;4969086;28;20038;-78
2023/09/13 00:57:15;;;;;;;39.28;32.03;;;20.40;99.90;;;;;;4952831;28;20035;-78
2023/09/13 00:59:41;;;;;;;36.92;29.00;;;20.40;99.90;;;;;;4972316;28;20035;-78
2023/09/13 01:02:07;;;;;;;31.80;23.60;;;20.40;99.90;;;;;;4957502;28;20081;-78
2023/09/13 01:04:37;;;;;;;25.05;20.77;;;20.40;99.90;;;;;;4970724;28;20074;-79
2023/09/13 01:07:02;;;;;;;29.25;23.00;;;20.40;99.90;;;;;;4957589;28;20034;-78
2023/09/13 01:09:29;;;;;;;26.70;20.58;;;20.40;99.90;;;;;;4958917;28;20046;-78
2023/09/13 01:11:54;;;;;;;20.35;16.45;;;20.40;99.90;;;;;;4973503;28;20039;-78
2023/09/13 01:14:21;;;;;;;26.25;19.55;;;20.30;99.90;;;;;;4972154;28;20060;-79
2023/09/13 01:17:19;;;;;;;29.15;22.25;;;20.40;99.90;;;;;;4973982;28;20050;-78
2023/09/13 01:19:53;;;;;;;22.00;19.25;;;20.40;99.90;;;;;;4976821;28;20027;-78
2023/09/13 01:22:57;;;;;;;21.90;19.50;;;20.40;99.90;;;;;;4969905;28;20402;-78
2023/09/13 01:25:49;;;;;;;17.80;15.30;;;20.40;99.90;;;;;;4971175;28;20168;-78
2023/09/13 01:28:33;;;;;;;28.30;20.33;;;20.40;99.90;;;;;;4970076;28;20507;-78
2023/09/13 01:30:58;;;;;;;24.38;19.70;;;20.30;99.90;;;;;;4969722;28;20129;-78
2023/09/13 01:33:24;;;;;;;25.80;19.25;;;20.30;99.90;;;;;;4968458;28;20035;-78
2023/09/13 01:35:51;;;;;;;19.75;16.73;;;20.20;99.90;;;;;;4954939;28;20041;-78
2023/09/13 01:38:16;;;;;;;27.08;21.85;;;20.30;99.90;;;;;;4950074;28;20427;-77
2023/09/13 01:40:42;;;;;;;19.58;16.90;;;20.30;99.90;;;;;;4971170;28;20037;-78
2023/09/13 01:43:07;;;;;;;21.17;16.00;;;20.20;99.90;;;;;;4940973;28;20503;-78
2023/09/13 01:45:34;;;;;;;31.85;25.73;;;20.20;99.90;;;;;;4951677;28;20075;-78
2023/09/13 01:48:00;;;;;;;18.15;15.30;;;20.20;99.90;;;;;;4968811;28;20399;-78
2023/09/13 01:50:25;;;;;;;20.27;17.10;;;20.10;99.90;;;;;;4969515;28;20035;-78
2023/09/13 01:52:51;;;;;;;18.55;15.52;;;20.20;99.90;;;;;;4973305;28;20027;-77
2023/09/13 01:55:17;;;;;;;27.67;23.10;;;20.30;99.90;;;;;;4971874;28;20140;-77
2023/09/13 01:57:42;;;;;;;22.55;18.48;;;20.10;99.90;;;;;;4971973;28;20407;-78
2023/09/13 02:00:09;;;;;;;20.17;16.80;;;20.20;99.90;;;;;;4953247;28;20129;-78
2023/09/13 02:02:34;;;;;;;27.35;21.20;;;20.20;99.90;;;;;;4985476;28;20865;-78
2023/09/13 02:05:00;;;;;;;28.67;23.75;;;20.20;99.90;;;;;;4970181;28;20042;-78
2023/09/13 02:07:26;;;;;;;23.55;17.15;;;20.10;99.90;;;;;;4971804;28;20098;-79
2023/09/13 02:09:53;;;;;;;25.42;20.58;;;20.10;99.90;;;;;;4968752;28;20174;-78
2023/09/13 02:12:19;;;;;;;39.22;27.23;;;20.00;99.90;;;;;;4970907;28;20039;-78
2023/09/13 02:14:44;;;;;;;26.73;22.30;;;20.10;99.90;;;;;;4971453;28;20034;-78
2023/09/13 02:17:10;;;;;;;44.42;31.98;;;20.20;99.90;;;;;;4959145;28;20042;-79
2023/09/13 02:19:36;;;;;;;37.63;29.30;;;20.10;99.90;;;;;;4956864;28;20365;-78
2023/09/13 02:22:02;;;;;;;31.45;25.85;;;20.00;99.90;;;;;;4970389;28;20070;-78
2023/09/13 02:24:27;;;;;;;22.50;17.77;;;20.10;99.90;;;;;;4967850;28;20034;-78
2023/09/13 02:26:56;;;;;;;35.35;25.80;;;20.10;99.90;;;;;;4966225;28;20022;-77
2023/09/13 02:29:22;;;;;;;27.65;20.83;;;20.10;99.90;;;;;;4971974;28;20049;-77
2023/09/13 02:31:48;;;;;;;22.83;18.02;;;20.10;99.90;;;;;;4957483;28;20038;-77
2023/09/13 02:34:13;;;;;;;22.17;17.05;;;20.20;99.90;;;;;;4972761;28;20387;-78
2023/09/13 02:36:39;;;;;;;19.35;14.77;;;20.00;99.90;;;;;;4951754;28;20507;-78
2023/09/13 02:39:04;;;;;;;25.40;20.63;;;20.10;99.90;;;;;;4967305;28;20098;-79
2023/09/13 02:41:30;;;;;;;18.67;15.52;;;20.10;99.90;;;;;;4970076;28;20034;-78
2023/09/13 02:43:55;;;;;;;27.63;19.50;;;20.00;99.90;;;;;;4966403;28;20037;-77
2023/09/13 02:46:21;;;;;;;20.80;18.58;;;20.10;99.90;;;;;;4971048;28;20086;-78
2023/09/13 02:48:47;;;;;;;22.00;17.17;;;20.00;99.90;;;;;;4968519;28;20066;-79
2023/09/13 02:51:13;;;;;;;42.47;31.42;;;19.90;99.90;;;;;;4969271;28;20033;-78
2023/09/13 02:53:39;;;;;;;37.83;28.58;;;19.90;99.90;;;;;;4967731;28;20070;-78
2023/09/13 02:56:07;;;;;;;33.25;25.33;;;19.90;99.90;;;;;;4972011;28;20042;-79
2023/09/13 02:58:32;;;;;;;36.28;28.20;;;19.90;99.90;;;;;;4971493;28;20051;-79
2023/09/13 03:01:02;;;;;;;30.48;21.95;;;19.90;99.90;;;;;;4969520;28;20716;-78
2023/09/13 03:03:28;;;;;;;33.17;23.95;;;19.90;99.90;;;;;;4971695;28;20041;-77
2023/09/13 03:05:54;;;;;;;30.70;20.77;;;19.90;99.90;;;;;;4966999;28;20030;-78
2023/09/13 03:08:19;;;;;;;33.47;23.60;;;19.90;99.90;;;;;;4955163;28;20118;-77
2023/09/13 03:10:45;;;;;;;30.05;22.70;;;19.90;99.90;;;;;;4970536;28;20054;-78
2023/09/13 03:13:10;;;;;;;36.65;26.77;;;19.90;99.90;;;;;;4974723;28;20173;-78
2023/09/13 03:15:36;;;;;;;32.95;24.27;;;20.00;99.90;;;;;;4970487;28;20038;-78
2023/09/13 03:18:01;;;;;;;36.78;25.20;;;19.90;99.90;;;;;;4971383;28;20034;-78
2023/09/13 03:20:27;;;;;;;43.65;29.58;;;19.90;99.90;;;;;;4970070;28;20038;-78
2023/09/13 03:22:55;;;;;;;40.45;29.02;;;19.80;99.90;;;;;;4970984;28;20019;-78
2023/09/13 03:25:20;;;;;;;34.75;24.77;;;19.90;99.90;;;;;;4951714;28;20027;-79
2023/09/13 03:27:47;;;;;;;40.42;27.90;;;19.90;99.90;;;;;;4954717;28;20084;-78
2023/09/13 03:30:13;;;;;;;42.15;31.10;;;19.90;99.90;;;;;;4967173;28;20655;-78
2023/09/13 03:32:39;;;;;;;51.17;33.60;;;19.80;99.90;;;;;;4970310;28;20026;-77
2023/09/13 03:35:05;;;;;;;43.17;31.20;;;19.70;99.90;;;;;;4973399;28;20348;-78
2023/09/13 03:37:33;;;;;;;38.72;27.48;;;19.70;99.90;;;;;;4967480;28;20414;-78
2023/09/13 03:39:59;;;;;;;55.60;36.10;;;19.80;99.90;;;;;;4970075;28;20378;-78
2023/09/13 03:42:24;;;;;;;49.72;33.53;;;19.80;99.90;;;;;;4968560;28;20034;-78
2023/09/13 03:44:50;;;;;;;104.07;37.50;;;19.60;99.90;;;;;;4956868;28;20031;-79
2023/09/13 03:47:15;;;;;;;48.78;34.97;;;19.50;99.90;;;;;;4973540;28;20041;-79
2023/09/13 03:49:41;;;;;;;72.32;43.92;;;19.10;99.90;;;;;;4970643;28;20034;-78
2023/09/13 03:52:06;;;;;;;57.67;36.47;;;19.10;99.90;;;;;;4970114;28;20034;-78
2023/09/13 03:54:32;;;;;;;74.95;44.45;;;19.00;99.90;;;;;;4974414;28;20046;-78
2023/09/13 03:56:57;;;;;;;59.95;39.20;;;19.10;99.90;;;;;;4972329;28;20174;-78
2023/09/13 03:59:23;;;;;;;49.90;33.30;;;19.10;99.90;;;;;;4975253;28;20110;-78
2023/09/13 04:01:49;;;;;;;49.65;32.58;;;19.00;99.90;;;;;;4971686;28;20030;-77
2023/09/13 04:04:14;;;;;;;56.15;37.50;;;19.10;99.90;;;;;;4975465;28;20069;-78
2023/09/13 04:06:40;;;;;;;102.13;41.08;;;19.10;99.90;;;;;;4962683;28;20043;-79
2023/09/13 04:09:06;;;;;;;46.25;29.30;;;19.00;99.90;;;;;;4971245;28;20060;-79
2023/09/13 04:11:32;;;;;;;40.90;28.52;;;18.80;99.90;;;;;;4973068;28;20046;-78
2023/09/13 04:13:57;;;;;;;59.38;37.47;;;18.80;99.90;;;;;;4974617;28;20114;-78
2023/09/13 04:16:23;;;;;;;55.88;37.35;;;18.80;99.90;;;;;;4954799;28;20792;-78
2023/09/13 04:18:48;;;;;;;45.67;32.88;;;19.00;99.90;;;;;;4973841;28;20047;-79
2023/09/13 04:21:14;;;;;;;36.92;23.15;;;19.20;99.90;;;;;;4974249;28;20542;-78
2023/09/13 04:23:40;;;;;;;31.65;21.60;;;19.20;99.90;;;;;;4971413;28;20403;-78
2023/09/13 04:26:06;;;;;;;44.40;30.02;;;19.30;99.90;;;;;;4972523;28;20031;-78
2023/09/13 04:28:33;;;;;;;50.60;33.35;;;19.30;99.90;;;;;;4955675;28;20066;-78
2023/09/13 04:30:59;;;;;;;39.67;27.80;;;19.30;99.90;;;;;;4976645;28;20027;-78
2023/09/13 04:33:47;;;;;;;52.55;36.10;;;19.30;99.90;;;;;;4972451;28;20041;-78
2023/09/13 04:36:13;;;;;;;53.72;31.98;;;19.30;99.90;;;;;;4988700;28;20035;-78
2023/09/13 04:38:38;;;;;;;37.65;26.42;;;19.20;99.90;;;;;;4976085;28;20035;-77
2023/09/13 04:41:09;;;;;;;48.08;32.08;;;19.20;99.90;;;;;;4972906;28;20066;-78
2023/09/13 04:43:35;;;;;;;33.65;20.35;;;19.30;99.90;;;;;;4960463;28;20118;-79
2023/09/13 04:46:01;;;;;;;39.92;27.33;;;19.20;99.90;;;;;;4973655;28;20117;-78
2023/09/13 04:48:26;;;;;;;51.78;32.47;;;19.30;99.90;;;;;;4960932;28;20453;-77
2023/09/13 04:50:52;;;;;;;38.83;26.10;;;19.20;99.90;;;;;;4975455;28;20039;-77
2023/09/13 04:53:17;;;;;;;39.80;26.63;;;19.10;99.90;;;;;;4974050;28;20031;-77
2023/09/13 04:55:44;;;;;;;38.35;25.98;;;19.20;99.90;;;;;;4953442;28;20019;-78
2023/09/13 04:58:10;;;;;;;34.85;21.38;;;19.20;99.90;;;;;;4975035;28;20359;-79
2023/09/13 05:00:35;;;;;;;45.92;30.25;;;19.20;99.90;;;;;;4970947;28;20384;-78
2023/09/13 05:03:01;;;;;;;41.30;25.30;;;19.10;99.90;;;;;;4975375;28;20031;-77
2023/09/13 05:05:26;;;;;;;60.75;37.58;;;19.10;99.90;;;;;;4956773;28;20046;-77
2023/09/13 05:07:54;;;;;;;59.30;37.78;;;19.10;99.90;;;;;;4971284;28;20117;-77
2023/09/13 05:10:20;;;;;;;35.78;25.10;;;19.10;99.90;;;;;;4972358;28;20081;-79
2023/09/13 05:12:48;;;;;;;32.60;22.73;;;19.20;99.90;;;;;;4971871;28;20482;-78
2023/09/13 05:15:14;;;;;;;40.85;24.80;;;19.20;99.90;;;;;;4981654;28;20519;-78
2023/09/13 05:17:40;;;;;;;40.33;26.02;;;19.20;99.90;;;;;;4969673;28;20046;-77
2023/09/13 05:20:06;;;;;;;34.65;21.80;;;19.30;99.90;;;;;;4957250;28;20045;-77
2023/09/13 05:22:32;;;;;;;47.58;30.40;;;19.20;99.90;;;;;;4989288;28;20573;-78
2023/09/13 05:25:00;;;;;;;47.80;30.83;;;19.10;99.90;;;;;;4971963;28;20034;-79
2023/09/13 05:27:26;;;;;;;39.65;23.77;;;19.10;99.90;;;;;;4974321;28;20302;-78
2023/09/13 05:29:52;;;;;;;43.90;27.45;;;19.10;99.90;;;;;;4972746;28;20034;-78
2023/09/13 05:32:18;;;;;;;47.95;30.27;;;19.10;99.90;;;;;;4976206;28;20403;-78
2023/09/13 05:34:44;;;;;;;44.63;25.60;;;19.10;99.90;;;;;;4971343;28;20035;-78
2023/09/13 05:37:10;;;;;;;41.63;23.63;;;19.00;99.90;;;;;;4972060;28;20606;-80
2023/09/13 05:39:35;;;;;;;61.72;33.67;;;19.00;99.90;;;;;;4971718;28;20054;-79
2023/09/13 05:42:02;;;;;;;42.05;25.67;;;19.00;99.90;;;;;;4968679;28;20050;-79
2023/09/13 05:44:28;;;;;;;49.15;30.45;;;19.00;99.90;;;;;;4967600;28;20121;-78
2023/09/13 05:46:53;;;;;;;46.95;29.52;;;18.90;99.90;;;;;;4987527;28;20038;-78
2023/09/13 05:49:19;;;;;;;44.65;28.60;;;19.00;99.90;;;;;;4972051;28;20042;-78
2023/09/13 05:51:45;;;;;;;39.78;26.33;;;19.00;99.90;;;;;;4972994;28;20033;-80
2023/09/13 05:54:11;;;;;;;49.88;31.65;;;19.00;99.90;;;;;;4971911;28;20043;-78
2023/09/13 05:56:37;;;;;;;39.70;23.83;;;19.00;99.90;;;;;;4969776;28;20038;-78
2023/09/13 05:59:02;;;;;;;48.45;29.65;;;18.90;99.90;;;;;;4976061;28;20045;-79
2023/09/13 06:01:28;;;;;;;48.67;30.60;;;19.00;99.90;;;;;;4972028;28;20027;-78
2023/09/13 06:03:54;;;;;;;46.67;27.83;;;18.90;99.90;;;;;;4968596;28;20073;-78
2023/09/13 06:06:19;;;;;;;29.83;19.67;;;19.00;99.90;;;;;;4969376;28;20035;-80
2023/09/13 06:08:45;;;;;;;47.25;28.05;;;19.00;99.90;;;;;;4972203;28;20508;-81
2023/09/13 06:11:10;;;;;;;39.53;24.98;;;19.10;99.90;;;;;;4975733;28;20042;-81
2023/09/13 06:13:36;;;;;;;38.08;24.00;;;19.20;99.90;;;;;;4972214;28;20089;-81
2023/09/13 06:16:02;;;;;;;48.67;30.30;;;19.20;99.90;;;;;;4975039;28;20118;-81
2023/09/13 06:18:28;;;;;;;45.70;27.10;;;19.20;99.90;;;;;;4975118;28;20035;-81
2023/09/13 06:20:54;;;;;;;42.38;26.58;;;19.20;99.90;;;;;;4957190;28;20471;-81
2023/09/13 06:23:52;;;;;;;49.60;27.27;;;19.30;99.90;;;;;;4968994;28;20086;-81
2023/09/13 06:26:18;;;;;;;54.70;29.70;;;19.20;99.90;;;;;;4924438;28;21718;-81
2023/09/13 06:28:43;;;;;;;40.70;22.50;;;19.20;99.90;;;;;;4973780;28;20118;-82
2023/09/13 06:31:09;;;;;;;38.90;25.60;;;19.30;99.90;;;;;;4973384;28;20419;-81
2023/09/13 06:33:35;;;;;;;38.15;21.80;;;19.30;99.90;;;;;;4953464;28;20634;-81
2023/09/13 06:36:00;;;;;;;48.83;28.38;;;19.30;99.90;;;;;;4972933;28;20081;-82
2023/09/13 06:38:26;;;;;;;46.67;27.50;;;19.30;99.90;;;;;;4969998;28;20046;-81
2023/09/13 06:40:51;;;;;;;43.45;26.17;;;19.30;99.90;;;;;;4955349;28;20035;-81
2023/09/13 06:43:18;;;;;;;43.33;26.15;;;19.30;99.90;;;;;;4956717;28;20090;-81
2023/09/13 06:45:45;;;;;;;34.42;22.67;;;19.30;99.90;;;;;;4955971;28;20420;-81
2023/09/13 06:48:10;;;;;;;39.05;25.05;;;19.30;99.90;;;;;;4968374;28;20109;-80
2023/09/13 06:50:36;;;;;;;38.70;24.50;;;19.40;99.90;;;;;;4971317;28;20483;-81
2023/09/13 06:53:02;;;;;;;38.00;24.75;;;19.40;99.90;;;;;;4974336;28;20078;-80
2023/09/13 06:55:30;;;;;;;38.15;23.48;;;19.40;99.90;;;;;;4971653;28;20042;-81
2023/09/13 06:57:55;;;;;;;47.20;29.13;;;19.40;99.90;;;;;;4970250;28;20483;-81
2023/09/13 07:00:21;;;;;;;39.60;26.65;;;19.50;99.90;;;;;;4970580;28;20093;-81
2023/09/13 07:02:47;;;;;;;34.47;21.42;;;19.60;99.90;;;;;;4957616;28;20055;-81
2023/09/13 07:05:12;;;;;;;42.13;25.63;;;19.60;99.90;;;;;;4958653;28;20042;-81
2023/09/13 07:07:40;;;;;;;41.70;21.58;;;19.70;99.90;;;;;;4974033;28;20105;-81
2023/09/13 07:10:07;;;;;;;38.38;26.17;;;19.70;99.90;;;;;;4972592;28;20114;-81
2023/09/13 07:12:33;;;;;;;37.10;20.10;;;19.70;99.90;;;;;;4952252;28;20034;-80
2023/09/13 07:14:59;;;;;;;30.63;17.80;;;19.80;99.90;;;;;;4973321;28;20105;-80
2023/09/13 07:17:24;;;;;;;29.90;20.15;;;19.80;99.90;;;;;;4970069;28;20023;-81
2023/09/13 07:19:50;;;;;;;32.05;19.33;;;19.80;99.90;;;;;;4968183;28;20469;-80
2023/09/13 07:22:16;;;;;;;33.65;22.63;;;19.80;99.90;;;;;;4971744;28;20023;-80
2023/09/13 07:24:41;;;;;;;34.90;20.42;;;19.80;99.90;;;;;;4975559;28;20149;-80
2023/09/13 07:27:07;;;;;;;32.10;19.88;;;19.80;99.90;;;;;;4972997;28;20045;-81
2023/09/13 07:29:33;;;;;;;35.10;20.77;;;19.80;99.90;;;;;;4966881;28;20173;-80
2023/09/13 07:31:58;;;;;;;41.75;24.50;;;19.80;99.90;;;;;;4968351;28;20035;-80
2023/09/13 07:34:24;;;;;;;30.63;17.98;;;19.80;99.90;;;;;;4971611;28;20508;-80
2023/09/13 07:36:50;;;;;;;45.50;28.38;;;19.80;99.90;;;;;;4986514;28;20646;-81
2023/09/13 07:39:16;;;;;;;36.40;21.60;;;19.90;99.90;;;;;;4984318;28;20027;-80
2023/09/13 07:41:42;;;;;;;33.85;19.58;;;19.90;99.90;;;;;;4969665;28;20057;-81
2023/09/13 07:44:07;;;;;;;43.58;27.40;;;19.90;99.90;;;;;;4972036;28;20031;-81
2023/09/13 07:46:33;;;;;;;38.28;24.88;;;20.00;99.90;;;;;;4969970;28;20189;-81
2023/09/13 07:48:58;;;;;;;36.63;23.88;;;20.00;99.90;;;;;;4975627;28;20042;-81
2023/09/13 07:51:24;;;;;;;36.78;22.08;;;20.10;99.90;;;;;;4972463;28;20069;-80
2023/09/13 07:53:53;;;;;;;37.47;19.23;;;20.10;99.90;;;;;;4969873;28;20049;-80
2023/09/13 07:56:19;;;;;;;40.38;25.67;;;20.20;99.90;;;;;;4971140;28;20034;-79
2023/09/13 07:58:46;;;;;;;21.88;12.30;;;20.30;99.90;;;;;;4972328;28;20038;-80
2023/09/13 08:01:11;;;;;;;36.50;21.50;;;20.30;99.90;;;;;;4970836;28;20065;-81
2023/09/13 08:03:37;;;;;;;37.45;22.90;;;20.20;99.90;;;;;;4974539;28;20026;-80
2023/09/13 08:06:03;;;;;;;33.47;20.33;;;20.30;99.90;;;;;;4971886;28;20042;-80
2023/09/13 08:08:30;;;;;;;36.13;23.27;;;20.40;99.90;;;;;;4948836;28;20064;-80
2023/09/13 08:10:56;;;;;;;39.25;25.10;;;20.30;99.90;;;;;;4972433;28;20062;-80
2023/09/13 08:13:22;;;;;;;40.97;24.67;;;20.40;99.90;;;;;;4970046;28;20062;-81
2023/09/13 08:15:48;;;;;;;33.47;21.08;;;20.40;99.90;;;;;;4955650;28;20166;-80
2023/09/13 08:18:14;;;;;;;34.30;22.75;;;20.40;99.90;;;;;;4971198;28;20039;-81
2023/09/13 08:20:40;;;;;;;37.20;24.30;;;20.50;99.90;;;;;;4971856;28;20033;-81
2023/09/13 08:23:05;;;;;;;28.55;16.73;;;20.60;99.90;;;;;;4969289;28;20047;-81
2023/09/13 08:25:31;;;;;;;35.17;20.63;;;20.60;99.90;;;;;;4970193;28;20525;-81
2023/09/13 08:27:56;;;;;;;39.92;23.35;;;20.60;99.90;;;;;;4956780;28;20035;-81
2023/09/13 08:30:22;;;;;;;35.63;21.27;;;20.70;99.90;;;;;;4986696;28;20026;-81
2023/09/13 08:32:47;;;;;;;41.80;26.02;;;20.70;99.90;;;;;;4976721;28;20044;-84
2023/09/13 08:35:13;;;;;;;28.75;19.60;;;20.70;99.90;;;;;;4978076;28;20039;-82
2023/09/13 08:37:39;;;;;;;41.05;24.65;;;20.70;99.90;;;;;;4978561;28;20126;-82
2023/09/13 08:40:06;;;;;;;35.15;22.02;;;20.80;99.90;;;;;;4969862;28;20027;-82
2023/09/13 08:42:31;;;;;;;30.67;19.73;;;20.80;99.90;;;;;;4955699;28;20479;-81
2023/09/13 08:45:03;;;;;;;32.58;20.10;;;20.80;99.90;;;;;;4979965;28;20089;-81
2023/09/13 08:47:31;;;;;;;36.78;23.52;;;20.80;99.90;;;;;;4975855;28;20031;-80
2023/09/13 08:49:57;;;;;;;29.13;19.88;;;20.80;99.90;;;;;;4974076;28;20039;-81
2023/09/13 08:52:24;;;;;;;30.65;20.33;;;20.80;99.90;;;;;;4977424;28;20038;-81
2023/09/13 08:54:49;;;;;;;30.02;19.25;;;20.70;99.90;;;;;;4972007;28;20487;-81
2023/09/13 08:57:15;;;;;;;32.05;21.05;;;20.80;99.90;;;;;;4973835;28;20066;-82
2023/09/13 08:59:41;;;;;;;32.67;20.38;;;20.70;99.90;;;;;;4977010;28;20030;-81
2023/09/13 09:02:07;;;;;;;36.75;23.92;;;20.80;99.90;;;;;;4990055;28;20467;-81
2023/09/13 09:04:32;;;;;;;32.92;19.15;;;20.80;99.90;;;;;;4954785;28;20042;-81
2023/09/13 09:06:58;;;;;;;31.83;19.67;;;21.00;99.90;;;;;;4973325;28;20030;-80
2023/09/13 09:09:28;;;;;;;29.38;19.50;;;21.00;99.90;;;;;;4974939;28;20061;-80
2023/09/13 09:11:56;;;;;;;31.25;21.35;;;21.10;99.90;;;;;;4972025;28;20035;-80
2023/09/13 09:14:22;;;;;;;32.22;19.45;;;21.20;99.90;;;;;;4973521;28;21352;-80
2023/09/13 09:16:48;;;;;;;35.22;23.38;;;21.20;99.90;;;;;;4979119;28;20041;-79
2023/09/13 09:19:14;;;;;;;25.42;17.50;;;21.40;99.90;;;;;;4974224;28;20066;-79
2023/09/13 09:21:39;;;;;;;33.40;20.38;;;21.50;99.90;;;;;;4977079;28;20070;-80
2023/09/13 09:24:06;;;;;;;30.77;21.30;;;21.50;99.90;;;;;;4975495;28;20089;-79
2023/09/13 09:26:32;;;;;;;26.52;17.98;;;21.90;99.90;;;;;;4971432;28;20502;-80
2023/09/13 09:29:10;;;;;;;27.40;16.40;;;22.10;99.90;;;;;;4974280;28;20502;-80
2023/09/13 09:31:35;;;;;;;35.13;17.25;;;22.40;99.90;;;;;;4972861;28;20049;-79
2023/09/13 09:34:03;;;;;;;27.88;17.10;;;22.50;99.90;;;;;;4972806;28;20038;-80
2023/09/13 09:36:34;;;;;;;34.25;21.33;;;22.60;99.90;;;;;;4976959;28;20518;-78
2023/09/13 09:39:00;;;;;;;25.60;17.85;;;22.70;99.90;;;;;;4970935;28;20030;-79
2023/09/13 09:41:34;;;;;;;24.25;17.67;;;22.80;99.90;;;;;;4974775;28;20081;-79
2023/09/13 09:43:59;;;;;;;33.65;18.13;;;23.00;99.90;;;;;;4952841;28;20037;-79
2023/09/13 09:46:25;;;;;;;22.85;10.50;;;23.10;99.90;;;;;;4971940;28;20432;-79
2023/09/13 09:48:51;;;;;;;23.08;16.58;;;23.40;99.90;;;;;;4958449;28;20502;-80
2023/09/13 09:51:17;;;;;;;19.85;14.35;;;23.40;99.90;;;;;;4974470;28;20446;-80
2023/09/13 09:53:43;;;;;;;22.88;16.42;;;23.60;99.90;;;;;;4978362;28;20038;-80
2023/09/13 09:56:13;;;;;;;30.23;19.60;;;23.80;99.90;;;;;;4957936;28;20043;-79
2023/09/13 09:58:38;;;;;;;28.30;16.30;;;23.80;99.90;;;;;;4953617;28;20038;-79
2023/09/13 10:01:04;;;;;;;25.70;18.90;;;24.10;99.90;;;;;;4957243;28;20451;-81
2023/09/13 10:03:33;;;;;;;21.30;13.88;;;24.30;99.90;;;;;;4971397;28;20540;-80
2023/09/13 10:06:12;;;;;;;21.75;15.00;;;24.40;99.90;;;;;;4969579;28;20491;-80
2023/09/13 10:08:45;;;;;;;19.85;15.38;;;24.60;99.90;;;;;;4968398;28;20062;-79
2023/09/13 10:11:12;;;;;;;24.77;18.10;;;24.60;99.90;;;;;;4964952;28;20526;-82
2023/09/13 10:13:38;;;;;;;20.30;13.55;;;24.70;99.90;;;;;;4970695;28;20129;-79
2023/09/13 10:16:06;;;;;;;20.38;11.52;;;24.70;99.90;;;;;;4970330;28;20419;-80
2023/09/13 10:18:36;;;;;;;35.88;9.55;;;24.40;99.90;;;;;;4971471;28;20039;-84
2023/09/13 10:21:03;;;;;;;11.63;8.00;;;24.10;99.90;;;;;;4970780;28;20030;-85
2023/09/13 10:23:43;;;;;;;15.20;10.20;;;23.10;99.90;;;;;;4971533;28;20081;-84
2023/09/13 10:26:10;;;;;;;17.95;9.77;;;22.80;99.90;;;;;;4952270;28;20414;-84
2023/09/13 10:28:40;;;;;;;12.40;8.35;;;22.60;99.90;;;;;;4955163;28;20541;-83
2023/09/13 10:31:16;;;;;;;9.20;7.40;;;22.60;99.90;;;;;;4975137;28;20085;-81
2023/09/13 10:33:44;;;;;;;8.98;6.75;;;22.50;99.90;;;;;;4972059;28;20058;-83
2023/09/13 10:36:12;;;;;;;9.25;5.95;;;22.40;99.90;;;;;;4961289;28;20041;-85
2023/09/13 10:38:52;;;;;;;7.45;6.60;;;22.50;99.90;;;;;;4952455;28;20027;-85
2023/09/13 10:41:18;;;;;;;9.18;6.13;;;22.40;99.90;;;;;;4956492;28;20082;-84
2023/09/13 10:43:44;;;;;;;6.35;5.75;;;22.30;99.90;;;;;;4970553;28;20043;-85
2023/09/13 10:46:10;;;;;;;4.85;4.13;;;22.20;99.90;;;;;;4969579;28;20027;-84
2023/09/13 10:48:45;;;;;;;7.10;6.40;;;22.00;99.90;;;;;;4955888;28;20058;-84
2023/09/13 10:51:11;;;;;;;6.67;6.00;;;21.70;99.90;;;;;;4971036;28;20041;-83
2023/09/13 10:53:36;;;;;;;8.80;8.00;;;21.50;99.90;;;;;;4974451;28;20427;-83
2023/09/13 10:56:02;;;;;;;8.90;8.10;;;21.40;99.90;;;;;;4970159;28;20042;-84
2023/09/13 10:58:29;;;;;;;12.30;8.23;;;21.40;99.90;;;;;;4970188;28;20110;-83
2023/09/13 11:00:55;;;;;;;11.98;9.98;;;21.30;99.90;;;;;;4974997;28;20130;-83
2023/09/13 11:03:21;;;;;;;15.27;13.88;;;21.20;99.90;;;;;;4972291;28;20119;-83
2023/09/13 11:05:49;;;;;;;17.10;15.40;;;21.00;99.90;;;;;;4956793;28;20034;-83
2023/09/13 11:08:29;;;;;;;17.23;15.38;;;20.90;99.90;;;;;;4971872;28;20088;-83
2023/09/13 11:11:06;;;;;;;18.38;16.05;;;20.80;99.90;;;;;;4957014;28;20510;-82
2023/09/13 11:13:31;;;;;;;16.17;14.55;;;20.70;99.90;;;;;;4958800;28;20039;-82
2023/09/13 11:16:01;;;;;;;14.07;12.68;;;20.60;99.90;;;;;;4961813;28;20035;-83
2023/09/13 11:18:27;;;;;;;13.35;9.52;;;20.60;99.90;;;;;;4969044;28;20046;-82
2023/09/13 11:20:53;;;;;;;7.03;6.35;;;20.50;99.90;;;;;;4970637;28;20038;-84
2023/09/13 11:23:19;;;;;;;7.05;6.35;;;20.40;99.90;;;;;;4968279;28;20114;-82
2023/09/13 11:25:50;;;;;;;9.40;4.70;;;20.40;99.90;;;;;;4976187;28;20129;-84
2023/09/13 11:28:32;;;;;;;6.32;3.67;;;20.40;99.90;;;;;;4960451;28;20042;-82
2023/09/13 11:30:59;;;;;;;3.70;2.40;;;20.40;99.90;;;;;;4974477;28;20041;-83
2023/09/13 11:33:26;;;;;;;5.50;2.70;;;20.40;99.90;;;;;;4976584;28;20042;-82
2023/09/13 11:35:52;;;;;;;4.63;2.22;;;20.40;99.90;;;;;;4972905;28;20545;-83
2023/09/13 11:38:18;;;;;;;3.17;2.28;;;20.50;99.90;;;;;;4974504;28;20494;-82
2023/09/13 11:40:47;;;;;;;2.63;2.10;;;20.40;99.90;;;;;;4951084;28;20033;-82
2023/09/13 11:43:12;;;;;;;4.97;2.30;;;20.40;99.90;;;;;;4967087;28;20130;-82
2023/09/13 11:45:39;;;;;;;3.60;2.05;;;20.50;99.90;;;;;;4955925;28;20039;-82
2023/09/13 11:48:06;;;;;;;5.47;2.15;;;20.50;99.90;;;;;;4973780;28;20054;-82
2023/09/13 11:50:44;;;;;;;3.88;1.85;;;20.60;99.90;;;;;;4972947;28;20077;-82
2023/09/13 11:53:20;;;;;;;3.55;2.10;;;20.70;99.90;;;;;;4980015;28;20048;-81
2023/09/13 11:55:56;;;;;;;6.45;2.17;;;20.80;99.90;;;;;;4961098;28;20038;-82
2023/09/13 11:58:37;;;;;;;;;;;21.00;99.90;;;;;;4973617;28;20023;-84
2023/09/13 12:01:04;;;;;;;3.20;1.50;;;20.90;99.90;;;;;;5003179;28;20297;-83
2023/09/13 12:03:31;;;;;;;2.22;1.52;;;20.90;99.90;;;;;;4975030;28;20117;-82
2023/09/13 12:05:57;;;;;;;8.10;2.33;;;20.90;99.90;;;;;;4969226;28;20027;-82
2023/09/13 12:08:27;;;;;;;3.00;1.27;;;20.80;99.90;;;;;;4956396;28;20657;-83
2023/09/13 12:10:54;;;;;;;4.47;1.55;;;20.80;99.90;;;;;;4968483;28;20117;-82
2023/09/13 12:13:20;;;;;;;4.53;2.05;;;20.80;99.90;;;;;;4960764;28;20088;-82
2023/09/13 12:16:02;;;;;;;2.67;1.70;;;21.00;99.90;;;;;;4962647;28;20042;-82
2023/09/13 12:18:30;;;;;;;4.45;1.77;;;21.20;99.90;;;;;;4986815;28;20509;-82
2023/09/13 12:20:57;;;;;;;5.72;2.33;;;21.30;99.90;;;;;;4979627;28;20402;-81
2023/09/13 12:23:23;;;;;;;1.88;1.60;;;21.40;99.90;;;;;;4974423;28;20495;-80
2023/09/13 12:25:49;;;;;;;2.72;1.70;;;21.70;99.90;;;;;;4974416;28;20041;-79
2023/09/13 12:28:26;;;;;;;5.05;1.77;;;21.90;99.90;;;;;;4980008;28;20047;-82
2023/09/13 12:30:53;;;;;;;5.20;1.80;;;22.00;99.90;;;;;;4960360;28;20027;-82